TimeMDT,TemperatureF,Dew PointF,Humidity,Sea Level PressureIn,VisibilityMPH,Wind Direction,Wind SpeedMPH,Gust SpeedMPH,PrecipitationIn,Events,Conditions,WindDirDegrees,DateUTC
12:53 AM,64.0,30.0,28,29.70,10.0,WNW,6.9,-,N/A,,Scattered Clouds,300,2012-05-17 06:53:00
1:53 AM,64.9,30.0,27,29.68,10.0,SE,9.2,19.6,N/A,,Mostly Cloudy,130,2012-05-17 07:53:00
2:53 AM,61.0,30.0,31,29.67,10.0,SW,6.9,-,N/A,,Clear,220,2012-05-17 08:53:00
3:53 AM,61.0,32.0,34,29.67,10.0,WNW,4.6,-,N/A,,Scattered Clouds,300,2012-05-17 09:53:00
4:53 AM,55.9,32.0,40,29.68,10.0,West,5.8,-,N/A,,Clear,280,2012-05-17 10:53:00
5:53 AM,52.0,30.9,45,29.70,10.0,South,3.5,-,N/A,,Clear,180,2012-05-17 11:53:00
6:53 AM,53.1,33.1,47,29.71,10.0,NNW,6.9,-,N/A,,Partly Cloudy,340,2012-05-17 12:53:00
7:53 AM,59.0,34.0,39,29.71,10.0,South,3.5,-,N/A,,Clear,190,2012-05-17 13:53:00
8:53 AM,66.0,34.0,30,29.69,10.0,ESE,3.5,-,N/A,,Clear,120,2012-05-17 14:53:00
9:53 AM,70.0,33.1,26,29.67,10.0,SSE,4.6,-,N/A,,Clear,160,2012-05-17 15:53:00
10:53 AM,73.0,30.0,20,29.65,10.0,Variable,3.5,-,N/A,,Clear,0,2012-05-17 16:53:00
11:53 AM,75.0,27.0,17,29.65,10.0,Calm,Calm,-,N/A,,Clear,0,2012-05-17 17:53:00
12:53 PM,75.9,25.0,15,29.59,10.0,SE,8.1,-,N/A,,Clear,140,2012-05-17 18:53:00
1:53 PM,73.0,30.0,20,29.59,10.0,SW,17.3,29.9,N/A,,Partly Cloudy,230,2012-05-17 19:53:00
2:04 PM,71.6,28.4,20,29.79,10.0,WSW,19.6,36.8,N/A,,Mostly Cloudy,240,2012-05-17 20:04:00
2:53 PM,68.0,34.0,28,29.63,10.0,West,24.2,39.1,N/A,,Mostly Cloudy,270,2012-05-17 20:53:00
3:53 PM,70.0,35.1,28,29.57,10.0,North,9.2,-,N/A,,Clear,360,2012-05-17 21:53:00
4:53 PM,73.9,32.0,21,29.56,10.0,North,4.6,-,N/A,,Clear,10,2012-05-17 22:53:00
5:53 PM,72.0,34.0,25,29.58,10.0,North,9.2,-,N/A,,Partly Cloudy,360,2012-05-17 23:53:00
6:37 PM,66.2,33.8,30,29.77,10.0,WSW,20.7,34.5,N/A,,Partly Cloudy,240,2012-05-18 00:37:00
6:53 PM,66.0,35.1,32,29.63,10.0,West,27.6,41.4,N/A,,Partly Cloudy,260,2012-05-18 00:53:00
7:53 PM,64.9,35.1,33,29.60,10.0,West,3.5,-,N/A,,Scattered Clouds,270,2012-05-18 01:53:00
8:53 PM,62.1,36.0,38,29.59,10.0,NW,6.9,-,N/A,,Clear,310,2012-05-18 02:53:00
9:53 PM,60.1,37.0,42,29.60,10.0,WNW,9.2,-,N/A,,Scattered Clouds,300,2012-05-18 03:53:00
10:53 PM,60.1,37.9,44,29.59,10.0,North,4.6,-,N/A,,Clear,350,2012-05-18 04:53:00
11:53 PM,57.0,39.0,51,29.57,10.0,Calm,Calm,-,N/A,,Clear,0,2012-05-18 05:53:00